Time;durP1;ratioP1;P1;durP2;ratioP2;P2;SDS_P1;SDS_P2;PMS_P1;PMS_P2;Temp;Humidity;BMP_temperature;BMP_pressure;BME280_temperature;BME280_humidity;BME280_pressure;Samples;Min_cycle;Max_cycle;Signal;HPM_P1;HPM_P2
2023/01/05 00:01:10;;;;;;;0.60;0.40;;;11.00;90.70;;;;;;5035280;28;20036;-78
2023/01/05 00:03:36;;;;;;;0.77;0.50;;;11.00;90.70;;;;;;5052137;28;20986;-76
2023/01/05 00:06:03;;;;;;;1.38;0.40;;;11.00;90.70;;;;;;5052941;28;20041;-77
2023/01/05 00:08:28;;;;;;;0.38;0.38;;;11.00;90.70;;;;;;5047923;28;20040;-78
2023/01/05 00:24:40;;;;;;;0.85;0.20;;;11.00;90.90;;;;;;5051928;28;20040;-77
2023/01/05 00:27:05;;;;;;;0.20;0.20;;;11.00;90.90;;;;;;5048998;28;20045;-76
2023/01/05 00:29:31;;;;;;;0.55;0.30;;;11.00;90.90;;;;;;5054093;28;20080;-77
2023/01/05 00:31:56;;;;;;;0.10;0.10;;;11.00;90.90;;;;;;5049765;28;20128;-77
2023/01/05 00:34:22;;;;;;;0.25;0.10;;;11.00;90.90;;;;;;5048416;28;20029;-77
2023/01/05 00:36:47;;;;;;;0.10;0.10;;;11.00;91.00;;;;;;5055026;28;20033;-76
2023/01/05 00:39:13;;;;;;;0.30;0.10;;;11.00;91.00;;;;;;5037321;28;20038;-76
2023/01/05 00:41:39;;;;;;;0.20;0.20;;;11.00;91.00;;;;;;5051181;28;20033;-77
2023/01/05 00:44:04;;;;;;;0.63;0.20;;;11.00;91.00;;;;;;5039276;28;20032;-76
2023/01/05 00:46:30;;;;;;;0.20;0.20;;;11.00;91.00;;;;;;5035126;28;20677;-78
2023/01/05 00:48:55;;;;;;;2.30;0.20;;;11.00;91.10;;;;;;5035946;28;20052;-78
2023/01/05 00:51:21;;;;;;;0.10;0.10;;;11.00;91.10;;;;;;5051146;28;20032;-78
2023/01/05 00:53:47;;;;;;;0.15;0.10;;;11.00;91.10;;;;;;5034409;28;20098;-77
2023/01/05 00:56:13;;;;;;;0.10;0.10;;;11.00;91.10;;;;;;5047375;28;20036;-76
2023/01/05 00:58:38;;;;;;;0.20;0.15;;;11.00;91.20;;;;;;5051915;28;20041;-77
2023/01/05 01:01:09;;;;;;;0.20;0.20;;;11.00;91.20;;;;;;5052531;28;20485;-76
2023/01/05 01:03:34;;;;;;;1.25;0.10;;;11.00;91.20;;;;;;5037408;28;20127;-76
2023/01/05 01:06:00;;;;;;;0.10;0.10;;;11.00;91.20;;;;;;5046205;28;20090;-77
2023/01/05 01:08:25;;;;;;;0.98;0.10;;;11.00;91.30;;;;;;5027980;28;20046;-77
2023/01/05 01:10:51;;;;;;;0.93;0.10;;;11.00;91.30;;;;;;5050000;28;20059;-76
2023/01/05 01:13:16;;;;;;;0.20;0.10;;;11.00;91.30;;;;;;5044150;28;20170;-78
2023/01/05 01:15:42;;;;;;;1.27;0.10;;;11.00;91.30;;;;;;5020963;28;20067;-76
2023/01/05 01:18:07;;;;;;;0.28;0.20;;;11.00;91.30;;;;;;5036152;28;20112;-75
2023/01/05 01:20:33;;;;;;;0.40;0.20;;;11.00;91.30;;;;;;5035306;28;20174;-76
2023/01/05 01:23:03;;;;;;;0.10;0.10;;;11.00;91.30;;;;;;5018071;28;20041;-77
2023/01/05 01:25:29;;;;;;;0.10;0.10;;;11.00;91.30;;;;;;5028972;28;20064;-77
2023/01/05 01:27:54;;;;;;;0.10;0.10;;;11.00;91.30;;;;;;5017429;28;20119;-76
2023/01/05 01:30:20;;;;;;;0.13;0.13;;;11.00;91.30;;;;;;5030498;28;20123;-77
2023/01/05 01:32:45;;;;;;;0.28;0.10;;;11.00;91.30;;;;;;5035092;28;20045;-76
2023/01/05 01:35:11;;;;;;;0.00;0.00;;;11.10;91.30;;;;;;5031562;28;20044;-77
2023/01/05 01:37:36;;;;;;;0.25;0.10;;;11.10;91.60;;;;;;5050789;28;20040;-76
2023/01/05 01:40:02;;;;;;;0.30;0.20;;;11.10;91.30;;;;;;5050009;28;20033;-77
2023/01/05 01:42:28;;;;;;;0.03;0.00;;;11.10;91.30;;;;;;5031607;28;20033;-76
2023/01/05 01:44:58;;;;;;;0.08;0.08;;;11.10;91.30;;;;;;5049205;28;20025;-76
2023/01/05 01:47:34;;;;;;;0.00;0.00;;;11.10;91.30;;;;;;5028557;28;20124;-76
2023/01/05 01:50:24;;;;;;;0.10;0.10;;;11.10;91.80;;;;;;5066380;28;20095;-77
2023/01/05 01:52:50;;;;;;;0.17;0.10;;;11.10;91.40;;;;;;5050472;28;20538;-76
2023/01/05 01:55:15;;;;;;;0.10;0.10;;;11.10;91.30;;;;;;5043905;28;20068;-76
2023/01/05 01:57:41;;;;;;;0.10;0.10;;;11.20;91.40;;;;;;5033721;28;20059;-77
2023/01/05 02:00:08;;;;;;;0.10;0.10;;;11.20;91.40;;;;;;5049865;28;20037;-78
2023/01/05 02:02:33;;;;;;;1.88;0.05;;;11.20;91.40;;;;;;5048350;28;20430;-76
2023/01/05 02:05:02;;;;;;;0.10;0.10;;;11.20;91.40;;;;;;5045858;28;20483;-77
2023/01/05 02:07:31;;;;;;;0.55;0.10;;;11.20;91.50;;;;;;5033490;28;20059;-76
2023/01/05 02:09:57;;;;;;;0.10;0.10;;;11.10;91.40;;;;;;5049784;28;20660;-77
2023/01/05 02:12:42;;;;;;;0.20;0.20;;;11.20;91.50;;;;;;5031084;28;20025;-77
2023/01/05 02:15:34;;;;;;;0.00;0.00;;;11.20;91.60;;;;;;5034852;28;20033;-75
2023/01/05 02:18:14;;;;;;;;;;;11.20;91.60;;;;;;5052201;28;20036;-77
2023/01/05 02:21:18;;;;;;;0.10;0.10;;;11.20;91.50;;;;;;5045577;28;20299;-76
2023/01/05 02:23:55;;;;;;;0.20;0.17;;;11.20;91.50;;;;;;5050188;28;20047;-76
2023/01/05 02:26:40;;;;;;;0.10;0.10;;;11.20;91.40;;;;;;5046388;28;20103;-76
2023/01/05 02:29:36;;;;;;;0.10;0.10;;;11.20;91.40;;;;;;5029752;28;20041;-77
2023/01/05 02:32:19;;;;;;;0.10;0.03;;;11.20;91.60;;;;;;5032824;28;20086;-77
2023/01/05 02:35:08;;;;;;;0.10;0.10;;;11.20;91.60;;;;;;5029929;28;20041;-76
2023/01/05 02:37:40;;;;;;;0.10;0.10;;;11.20;91.60;;;;;;5030134;28;20070;-76
2023/01/05 02:40:20;;;;;;;0.10;0.10;;;11.20;91.60;;;;;;5028851;28;20056;-77
2023/01/05 02:42:47;;;;;;;0.10;0.10;;;11.20;91.60;;;;;;5014393;28;20044;-77
2023/01/05 02:45:13;;;;;;;0.00;0.00;;;11.20;91.60;;;;;;5041651;28;20037;-77
2023/01/05 02:47:43;;;;;;;0.00;0.00;;;11.20;91.60;;;;;;5026803;28;20041;-76
2023/01/05 02:50:20;;;;;;;0.00;0.00;;;11.20;91.60;;;;;;5058200;28;20115;-74
2023/01/05 02:52:57;;;;;;;0.13;0.10;;;11.20;91.70;;;;;;5030622;28;20703;-75
2023/01/05 02:55:31;;;;;;;0.20;0.10;;;11.20;91.60;;;;;;5001559;28;20044;-76
2023/01/05 02:58:02;;;;;;;0.25;0.03;;;11.20;91.60;;;;;;5029129;28;20040;-77
2023/01/05 03:00:31;;;;;;;;;;;11.20;91.70;;;;;;5047283;28;20045;-76
2023/01/05 03:03:39;;;;;;;0.43;0.20;;;11.20;91.60;;;;;;5062203;28;19920;-76
2023/01/05 03:06:15;;;;;;;0.50;0.20;;;11.20;91.60;;;;;;5031136;28;20045;-76
2023/01/05 03:08:47;;;;;;;0.10;0.10;;;11.20;91.60;;;;;;5009204;28;20704;-76
2023/01/05 03:14:08;;;;;;;1.83;0.10;;;11.20;91.70;;;;;;5025184;28;20124;-77
2023/01/05 03:16:34;;;;;;;0.35;0.10;;;11.20;91.70;;;;;;5010287;28;20571;-77
2023/01/05 03:35:32;;;;;;;1.60;0.20;;;11.20;91.70;;;;;;4996625;28;20052;-77
2023/01/05 03:38:07;;;;;;;0.82;0.20;;;11.20;91.70;;;;;;5010243;28;20040;-76
2023/01/05 03:40:33;;;;;;;2.50;0.20;;;11.10;91.60;;;;;;5009543;28;20077;-77
2023/01/05 03:42:59;;;;;;;0.32;0.22;;;11.10;91.70;;;;;;5041002;28;20040;-76
2023/01/05 03:45:26;;;;;;;1.67;0.30;;;11.10;91.70;;;;;;5060108;28;20055;-76
2023/01/05 03:47:51;;;;;;;2.45;0.30;;;11.10;91.60;;;;;;5085705;28;20083;-76
2023/01/05 03:50:17;;;;;;;1.75;0.28;;;11.10;91.60;;;;;;5056405;28;21608;-76
2023/01/05 03:52:42;;;;;;;0.68;0.20;;;11.10;91.60;;;;;;5071848;28;20062;-76
2023/01/05 03:55:08;;;;;;;1.27;0.20;;;11.10;91.60;;;;;;5102091;27;20672;-75
2023/01/05 03:57:34;;;;;;;1.52;0.40;;;11.10;91.70;;;;;;5103498;27;20093;-78
2023/01/05 03:59:59;;;;;;;2.95;0.68;;;11.10;91.70;;;;;;5084339;28;20040;-77
2023/01/05 04:02:25;;;;;;;1.50;0.30;;;11.10;91.60;;;;;;5071690;28;20044;-78
2023/01/05 04:04:50;;;;;;;2.40;0.30;;;11.10;91.60;;;;;;5084558;28;20816;-76
2023/01/05 04:07:16;;;;;;;0.50;0.30;;;11.10;91.60;;;;;;5068273;28;20051;-78
2023/01/05 04:09:42;;;;;;;3.95;0.40;;;11.10;91.60;;;;;;5072434;28;20070;-76
2023/01/05 04:12:07;;;;;;;1.30;0.30;;;11.10;91.70;;;;;;5058482;28;20142;-76
2023/01/05 04:14:33;;;;;;;1.65;0.50;;;11.10;91.70;;;;;;5073180;28;20438;-71
2023/01/05 04:16:58;;;;;;;1.55;0.55;;;11.10;91.70;;;;;;5071646;28;20039;-76
2023/01/05 04:19:24;;;;;;;8.85;2.88;;;11.00;91.60;;;;;;5054058;28;20055;-78
2023/01/05 04:21:49;;;;;;;3.92;1.00;;;11.00;91.60;;;;;;5086115;28;20036;-77
2023/01/05 04:24:15;;;;;;;3.22;0.93;;;11.00;91.60;;;;;;5089055;28;20119;-77
2023/01/05 04:26:41;;;;;;;4.75;1.73;;;11.00;91.60;;;;;;5098512;27;20047;-76
2023/01/05 04:29:08;;;;;;;7.47;2.28;;;11.00;91.60;;;;;;5075906;28;20680;-75
2023/01/05 04:31:33;;;;;;;6.63;2.42;;;11.00;91.60;;;;;;5076176;28;20085;-75
2023/01/05 04:33:59;;;;;;;4.53;1.40;;;10.90;91.50;;;;;;5052324;28;20023;-77
2023/01/05 04:36:25;;;;;;;4.15;1.10;;;10.90;91.50;;;;;;5106570;27;20035;-76
2023/01/05 04:38:50;;;;;;;12.02;1.30;;;10.90;91.50;;;;;;5091675;28;20038;-76
2023/01/05 04:41:16;;;;;;;3.72;0.90;;;10.90;91.50;;;;;;5071026;27;20028;-76
2023/01/05 04:43:41;;;;;;;8.13;1.42;;;10.90;91.40;;;;;;5074348;27;20029;-76
2023/01/05 04:46:07;;;;;;;6.55;1.00;;;10.80;91.40;;;;;;5090365;28;20053;-76
2023/01/05 04:48:32;;;;;;;5.88;1.50;;;10.80;91.30;;;;;;5075207;27;20468;-76
2023/01/05 04:50:58;;;;;;;10.27;1.77;;;10.80;91.30;;;;;;5076444;27;20106;-76
2023/01/05 04:53:23;;;;;;;8.35;3.08;;;10.80;91.30;;;;;;5056889;27;20124;-75
2023/01/05 04:55:50;;;;;;;6.68;1.00;;;10.70;91.30;;;;;;5094449;27;20036;-77
2023/01/05 04:58:15;;;;;;;6.65;1.17;;;10.70;91.20;;;;;;5074699;27;20562;-76
2023/01/05 05:00:41;;;;;;;10.27;1.77;;;10.70;91.20;;;;;;5075554;27;20043;-76
2023/01/05 05:03:06;;;;;;;5.90;1.25;;;10.70;91.20;;;;;;5087377;27;20043;-76
2023/01/05 05:05:32;;;;;;;6.10;1.45;;;10.70;91.20;;;;;;5062866;28;20059;-77
2023/01/05 05:07:58;;;;;;;3.08;1.00;;;10.70;91.20;;;;;;5090868;27;20046;-76
2023/01/05 05:10:23;;;;;;;4.25;1.00;;;10.70;91.20;;;;;;5072705;27;20738;-76
2023/01/05 05:12:49;;;;;;;5.00;0.98;;;10.60;91.10;;;;;;5091071;27;20028;-76
2023/01/05 05:15:14;;;;;;;4.50;1.17;;;10.60;91.10;;;;;;5061417;28;20040;-77
2023/01/05 05:17:40;;;;;;;6.15;1.35;;;10.60;91.10;;;;;;5090037;27;20046;-76
2023/01/05 05:20:06;;;;;;;6.10;1.17;;;10.60;91.10;;;;;;5058335;28;20114;-75
2023/01/05 05:22:31;;;;;;;5.28;1.27;;;10.60;91.10;;;;;;5106461;27;20059;-76
2023/01/05 05:24:57;;;;;;;7.25;1.25;;;10.60;91.10;;;;;;5089798;27;20073;-74
2023/01/05 05:27:22;;;;;;;4.00;1.27;;;10.60;91.10;;;;;;5109278;27;20119;-74
2023/01/05 05:29:48;;;;;;;5.47;1.40;;;10.50;91.10;;;;;;5078049;27;20060;-76
2023/01/05 05:32:13;;;;;;;5.63;0.80;;;10.50;91.10;;;;;;5091810;27;20028;-77
2023/01/05 05:34:39;;;;;;;7.90;1.52;;;10.50;91.10;;;;;;5085618;28;20040;-77
2023/01/05 05:37:04;;;;;;;7.70;1.30;;;10.50;91.00;;;;;;5053835;28;20676;-76
2023/01/05 05:39:30;;;;;;;6.82;1.10;;;10.50;91.00;;;;;;5058423;27;20059;-74
2023/01/05 05:41:55;;;;;;;3.25;0.95;;;10.50;91.00;;;;;;5087234;27;20467;-76
2023/01/05 05:44:21;;;;;;;9.57;1.35;;;10.50;90.90;;;;;;5084765;27;20086;-75
2023/01/05 05:46:46;;;;;;;6.40;1.40;;;10.50;90.90;;;;;;5052650;28;20604;-77
2023/01/05 05:49:12;;;;;;;7.30;1.10;;;10.50;90.90;;;;;;5075227;28;20558;-77
2023/01/05 05:51:38;;;;;;;6.93;1.10;;;10.50;90.80;;;;;;5072855;28;20031;-76
2023/01/05 05:54:03;;;;;;;6.63;1.00;;;10.50;90.80;;;;;;5044230;27;20046;-76
2023/01/05 05:56:29;;;;;;;8.75;1.48;;;10.50;90.80;;;;;;5091192;27;20623;-76
2023/01/05 05:58:54;;;;;;;11.80;2.05;;;10.50;90.70;;;;;;5069142;28;20592;-75
2023/01/05 06:01:20;;;;;;;4.47;1.00;;;10.50;90.70;;;;;;5072192;27;20024;-76
2023/01/05 06:03:45;;;;;;;9.07;1.70;;;10.50;90.70;;;;;;5058934;28;20023;-76
2023/01/05 06:06:11;;;;;;;4.40;1.13;;;10.40;90.70;;;;;;5057725;28;20028;-76
2023/01/05 06:08:36;;;;;;;8.27;1.10;;;10.40;90.60;;;;;;5056481;28;20042;-76
2023/01/05 06:11:02;;;;;;;9.38;1.95;;;10.40;90.60;;;;;;5060672;28;20044;-75
2023/01/05 06:13:27;;;;;;;7.30;1.35;;;10.40;90.60;;;;;;5073763;28;20260;-77
2023/01/05 06:15:53;;;;;;;8.60;1.60;;;10.40;90.50;;;;;;5074972;28;20040;-75
2023/01/05 06:18:19;;;;;;;7.05;1.20;;;10.40;90.40;;;;;;5108277;27;20040;-77
2023/01/05 06:20:44;;;;;;;3.75;1.23;;;10.40;90.40;;;;;;5072935;27;20214;-77
2023/01/05 06:23:10;;;;;;;6.47;1.40;;;10.40;90.30;;;;;;5070678;28;20047;-76
2023/01/05 06:25:35;;;;;;;6.72;1.20;;;10.30;90.30;;;;;;5071679;27;20908;-76
2023/01/05 06:28:01;;;;;;;3.97;1.20;;;10.30;90.20;;;;;;5059164;28;20482;-77
2023/01/05 06:30:27;;;;;;;5.47;1.52;;;10.30;90.20;;;;;;5066697;28;20970;-76
2023/01/05 06:32:52;;;;;;;5.45;1.23;;;10.30;90.20;;;;;;5082431;28;20043;-76
2023/01/05 06:35:18;;;;;;;8.48;1.45;;;10.20;90.10;;;;;;5057893;27;20655;-77
2023/01/05 06:37:43;;;;;;;8.13;1.45;;;10.20;90.10;;;;;;5061505;27;20142;-76
2023/01/05 06:40:10;;;;;;;7.10;1.40;;;10.20;90.10;;;;;;5071922;28;20035;-76
2023/01/05 06:42:36;;;;;;;9.55;1.73;;;10.20;90.10;;;;;;5038708;28;20036;-76
2023/01/05 06:45:02;;;;;;;4.68;1.27;;;10.20;90.00;;;;;;5068573;28;20360;-77
2023/01/05 06:47:28;;;;;;;6.20;1.45;;;10.10;90.00;;;;;;5088846;28;20691;-76
2023/01/05 06:49:53;;;;;;;8.60;1.35;;;10.10;90.00;;;;;;5074629;28;20040;-76
2023/01/05 06:52:19;;;;;;;5.50;1.33;;;10.10;90.00;;;;;;5104107;27;20039;-76
2023/01/05 06:54:44;;;;;;;7.30;1.30;;;10.10;89.90;;;;;;5072094;28;20517;-77
2023/01/05 06:57:10;;;;;;;9.32;1.48;;;10.10;89.90;;;;;;5072338;28;20383;-77
2023/01/05 06:59:36;;;;;;;9.13;1.77;;;10.10;89.80;;;;;;5079610;27;21495;-75
2023/01/05 07:02:01;;;;;;;11.35;1.30;;;10.10;89.80;;;;;;5073668;28;20055;-76
2023/01/05 07:04:27;;;;;;;12.65;1.80;;;10.10;89.80;;;;;;5043835;28;20085;-76
2023/01/05 07:06:52;;;;;;;7.47;1.58;;;10.10;89.70;;;;;;5071603;28;20035;-77
2023/01/05 07:09:18;;;;;;;9.05;1.60;;;10.10;89.60;;;;;;5086157;27;20035;-76
2023/01/05 07:11:43;;;;;;;5.20;1.15;;;10.10;89.60;;;;;;5069009;28;20031;-77
2023/01/05 07:14:09;;;;;;;9.55;1.65;;;10.10;89.50;;;;;;5089301;27;20032;-77
2023/01/05 07:16:34;;;;;;;5.97;2.03;;;10.10;89.40;;;;;;5068501;28;20092;-77
2023/01/05 07:19:00;;;;;;;6.18;1.55;;;10.10;89.30;;;;;;5071410;28;20719;-77
2023/01/05 07:21:25;;;;;;;9.48;1.38;;;10.10;89.20;;;;;;5103997;27;20051;-78
2023/01/05 07:23:51;;;;;;;9.32;2.03;;;10.10;89.10;;;;;;5083130;28;20036;-76
2023/01/05 07:26:16;;;;;;;7.00;1.25;;;10.00;89.10;;;;;;5092148;28;20048;-77
2023/01/05 07:28:42;;;;;;;10.48;1.95;;;10.00;89.00;;;;;;5072398;28;20043;-77
2023/01/05 07:31:08;;;;;;;4.30;1.10;;;10.00;88.90;;;;;;5099895;27;20042;-76
2023/01/05 07:33:34;;;;;;;8.93;1.52;;;10.00;88.90;;;;;;5055272;28;20043;-77
2023/01/05 07:36:01;;;;;;;6.93;1.23;;;10.00;89.60;;;;;;5098770;27;20174;-77
2023/01/05 07:38:26;;;;;;;6.60;1.38;;;10.00;88.80;;;;;;5069895;28;20053;-77
2023/01/05 07:40:52;;;;;;;8.95;2.35;;;10.00;88.80;;;;;;5070603;28;20036;-77
2023/01/05 07:43:17;;;;;;;9.90;2.20;;;10.00;88.80;;;;;;5084913;28;20036;-76
2023/01/05 07:45:43;;;;;;;8.50;1.40;;;10.00;88.80;;;;;;5042994;28;20027;-77
2023/01/05 07:48:08;;;;;;;7.60;1.13;;;10.00;88.70;;;;;;5102434;27;20074;-76
2023/01/05 07:50:34;;;;;;;6.28;1.60;;;10.00;88.70;;;;;;5056551;28;20097;-77
2023/01/05 07:52:59;;;;;;;6.13;1.17;;;10.00;88.70;;;;;;5069287;28;20087;-76
2023/01/05 07:55:25;;;;;;;8.05;1.17;;;10.00;88.60;;;;;;5054745;28;20044;-78
2023/01/05 07:57:50;;;;;;;9.35;1.95;;;10.00;88.60;;;;;;5079870;28;20100;-77
2023/01/05 08:00:16;;;;;;;5.93;1.52;;;10.00;88.60;;;;;;5070849;28;20038;-77
2023/01/05 08:02:42;;;;;;;7.72;1.30;;;10.00;88.50;;;;;;5072908;28;20049;-77
2023/01/05 08:05:08;;;;;;;6.82;1.13;;;10.00;88.40;;;;;;5101786;27;20058;-75
2023/01/05 08:07:36;;;;;;;9.60;2.50;;;10.00;88.40;;;;;;5067677;28;20158;-77
2023/01/05 08:15:52;;;;;;;6.20;1.15;;;10.00;88.30;;;;;;5029473;28;20052;-77
2023/01/05 08:18:18;;;;;;;10.07;1.65;;;10.10;88.30;;;;;;5018837;28;20040;-76
2023/01/05 08:20:54;;;;;;;5.55;1.63;;;10.10;88.20;;;;;;5017655;28;20407;-76
2023/01/05 08:23:20;;;;;;;6.32;1.40;;;10.10;88.10;;;;;;5031139;28;20553;-76
2023/01/05 08:25:46;;;;;;;5.68;1.40;;;10.10;88.00;;;;;;5027871;28;20045;-75
2023/01/05 08:28:11;;;;;;;9.88;1.60;;;10.10;88.00;;;;;;5027138;28;20083;-77
2023/01/05 08:30:37;;;;;;;7.60;1.52;;;10.10;87.90;;;;;;5024423;28;20071;-75
2023/01/05 08:33:02;;;;;;;9.57;1.52;;;10.10;87.80;;;;;;5045993;28;21221;-76
2023/01/05 08:35:28;;;;;;;8.32;1.55;;;10.10;87.80;;;;;;5046358;28;20048;-76
2023/01/05 08:37:53;;;;;;;9.48;2.95;;;10.10;87.90;;;;;;5015351;28;20036;-75
2023/01/05 08:40:19;;;;;;;5.63;1.70;;;10.20;87.90;;;;;;5018072;28;20053;-76
2023/01/05 08:42:47;;;;;;;6.88;1.50;;;10.20;88.70;;;;;;5031724;28;20155;-76
2023/01/05 08:45:14;;;;;;;10.30;1.73;;;10.30;87.90;;;;;;5032501;28;20067;-77
2023/01/05 08:47:39;;;;;;;7.70;1.63;;;10.40;87.90;;;;;;5031203;28;20147;-77
2023/01/05 08:50:06;;;;;;;6.22;1.02;;;10.40;87.70;;;;;;5089721;28;20114;-77
2023/01/05 08:52:31;;;;;;;4.55;1.20;;;10.40;87.60;;;;;;5069647;28;20119;-76
2023/01/05 08:54:57;;;;;;;8.80;1.33;;;10.40;87.60;;;;;;5100537;27;20513;-77
2023/01/05 08:57:22;;;;;;;7.40;1.27;;;10.40;88.20;;;;;;5105516;27;20038;-76
2023/01/05 08:59:48;;;;;;;7.15;0.90;;;10.50;87.40;;;;;;5044527;28;20031;-74
2023/01/05 09:02:13;;;;;;;3.90;1.05;;;10.50;87.40;;;;;;5100595;27;20488;-76
2023/01/05 09:04:39;;;;;;;8.52;1.65;;;10.50;87.30;;;;;;5052954;27;20594;-76
2023/01/05 09:07:04;;;;;;;7.13;1.25;;;10.50;87.20;;;;;;5094911;28;20035;-76
2023/01/05 09:09:30;;;;;;;4.85;1.05;;;10.60;87.20;;;;;;5059032;28;20144;-77
2023/01/05 09:11:55;;;;;;;3.70;0.80;;;10.60;87.10;;;;;;5060993;28;20615;-75
2023/01/05 09:14:21;;;;;;;7.97;1.02;;;10.60;87.00;;;;;;5086571;28;20845;-74
2023/01/05 09:16:46;;;;;;;5.65;1.27;;;10.60;86.90;;;;;;5068317;28;20035;-77
2023/01/05 09:19:12;;;;;;;6.25;1.88;;;10.60;86.90;;;;;;5089539;28;20156;-76
2023/01/05 09:21:40;;;;;;;8.45;1.48;;;10.50;86.90;;;;;;5080767;27;20028;-76
2023/01/05 09:24:06;;;;;;;4.68;1.15;;;10.50;86.90;;;;;;5076036;28;20028;-76
2023/01/05 09:26:32;;;;;;;9.88;1.13;;;10.50;86.90;;;;;;5072123;28;20040;-76
2023/01/05 09:28:58;;;;;;;8.35;1.30;;;10.50;86.90;;;;;;5074025;27;20078;-76
2023/01/05 09:31:23;;;;;;;4.57;1.58;;;10.40;86.90;;;;;;5072940;28;20032;-76
2023/01/05 09:33:49;;;;;;;5.85;1.20;;;10.50;87.00;;;;;;5082533;27;20132;-76
2023/01/05 09:36:15;;;;;;;7.10;1.20;;;10.50;87.10;;;;;;5074218;28;20521;-76
2023/01/05 09:38:41;;;;;;;3.30;0.80;;;10.50;87.20;;;;;;5073578;28;20060;-77
2023/01/05 09:41:26;;;;;;;6.50;0.90;;;10.60;87.30;;;;;;5072827;28;20592;-75
2023/01/05 09:43:59;;;;;;;5.25;1.23;;;10.60;87.10;;;;;;5056446;28;20038;-76
2023/01/05 09:46:31;;;;;;;4.18;0.90;;;10.70;87.20;;;;;;5068374;28;20433;-77
2023/01/05 09:48:59;;;;;;;5.07;1.17;;;10.70;87.10;;;;;;5080167;27;20498;-77
2023/01/05 09:51:25;;;;;;;5.15;1.05;;;10.80;87.00;;;;;;5069875;28;20039;-74
2023/01/05 09:53:50;;;;;;;5.10;1.25;;;10.80;87.10;;;;;;5081107;27;20035;-77
2023/01/05 09:56:25;;;;;;;5.53;1.42;;;10.90;87.10;;;;;;5069724;28;20040;-75
2023/01/05 09:58:50;;;;;;;6.13;1.60;;;11.00;87.00;;;;;;5101016;27;20040;-76
2023/01/05 10:01:16;;;;;;;9.02;2.13;;;11.10;87.00;;;;;;5042144;27;20043;-76
2023/01/05 10:03:54;;;;;;;4.88;1.10;;;11.20;86.90;;;;;;5036148;28;20040;-76
2023/01/05 10:06:19;;;;;;;7.18;1.95;;;11.30;86.70;;;;;;5067370;28;20052;-76
2023/01/05 10:08:49;;;;;;;6.13;0.95;;;11.40;86.50;;;;;;5059667;28;20082;-77
2023/01/05 10:14:10;;;;;;;8.30;1.60;;;11.40;86.10;;;;;;5079737;28;20123;-76
2023/01/05 10:16:35;;;;;;;11.50;1.88;;;11.50;86.00;;;;;;5088094;28;20035;-76
2023/01/05 10:19:01;;;;;;;8.65;3.03;;;11.50;85.90;;;;;;5057106;27;20041;-75
2023/01/05 10:21:34;;;;;;;9.90;2.60;;;11.50;85.80;;;;;;5057621;28;20050;-77
2023/01/05 10:24:16;;;;;;;11.88;2.53;;;11.60;85.90;;;;;;5105731;27;20039;-76
2023/01/05 10:26:45;;;;;;;12.10;4.10;;;11.70;85.50;;;;;;5084270;27;20035;-76
2023/01/05 10:29:21;;;;;;;7.40;1.73;;;11.70;85.60;;;;;;5074190;27;20065;-76
2023/01/05 10:31:58;;;;;;;5.40;1.73;;;11.70;85.30;;;;;;5087170;27;20575;-76
2023/01/05 10:34:44;;;;;;;7.82;2.28;;;11.70;85.30;;;;;;5084677;27;20118;-76
2023/01/05 10:37:29;;;;;;;8.07;2.00;;;11.80;85.40;;;;;;5084976;28;20046;-76
2023/01/05 10:40:09;;;;;;;5.85;1.60;;;11.90;85.30;;;;;;5071875;28;20053;-76
2023/01/05 10:43:13;;;;;;;16.85;1.88;;;12.00;85.10;;;;;;5071718;28;20622;-76
2023/01/05 10:45:39;;;;;;;10.45;1.48;;;12.00;84.80;;;;;;5054721;28;20066;-76
2023/01/05 10:48:26;;;;;;;13.55;2.00;;;12.10;85.00;;;;;;5080381;28;20071;-75
2023/01/05 10:50:51;;;;;;;7.38;1.50;;;12.10;84.60;;;;;;5052346;28;20120;-76
2023/01/05 10:53:21;;;;;;;6.80;1.23;;;12.20;84.70;;;;;;5080042;27;20036;-76
2023/01/05 10:55:55;;;;;;;10.48;1.33;;;12.20;84.70;;;;;;5060782;28;20031;-76
2023/01/05 10:58:25;;;;;;;4.00;0.90;;;12.40;84.70;;;;;;5086463;28;21068;-74
2023/01/05 11:00:53;;;;;;;12.70;1.77;;;12.50;84.60;;;;;;5072297;28;20040;-76
2023/01/05 11:03:18;;;;;;;5.40;1.00;;;12.60;84.60;;;;;;5073319;28;21024;-76
2023/01/05 11:05:45;;;;;;;8.63;1.67;;;12.60;84.10;;;;;;5070518;28;20043;-76
2023/01/05 11:08:18;;;;;;;9.27;2.42;;;12.60;83.80;;;;;;5087181;27;20066;-76
2023/01/05 11:11:06;;;;;;;4.07;1.67;;;12.60;83.60;;;;;;5087077;28;20032;-74
2023/01/05 11:13:37;;;;;;;5.95;1.90;;;12.50;83.30;;;;;;5073604;28;20039;-76
2023/01/05 11:16:14;;;;;;;6.10;1.67;;;12.50;83.70;;;;;;5070478;28;20032;-76
2023/01/05 11:18:48;;;;;;;9.02;2.22;;;12.40;83.70;;;;;;5089243;28;20035;-77
2023/01/05 11:21:17;;;;;;;7.78;1.70;;;12.40;83.90;;;;;;5042955;28;20031;-74
2023/01/05 11:23:53;;;;;;;5.20;1.75;;;12.30;84.00;;;;;;5068733;28;20712;-75
2023/01/05 11:26:29;;;;;;;4.55;1.70;;;12.30;84.10;;;;;;5084108;28;20059;-77
2023/01/05 11:28:57;;;;;;;6.07;1.10;;;12.20;84.20;;;;;;5104220;27;20419;-76
2023/01/05 11:31:26;;;;;;;7.47;1.77;;;12.20;84.30;;;;;;5087990;28;20542;-76
2023/01/05 11:33:56;;;;;;;5.28;1.30;;;12.10;84.40;;;;;;5092690;28;20048;-74
2023/01/05 11:36:21;;;;;;;4.78;1.35;;;12.00;84.40;;;;;;5072178;28;20797;-75
2023/01/05 11:38:51;;;;;;;8.50;1.48;;;12.00;84.60;;;;;;5050766;28;20135;-77
2023/01/05 11:41:17;;;;;;;7.10;1.38;;;11.90;84.60;;;;;;5070818;28;20039;-78
2023/01/05 11:43:44;;;;;;;6.45;1.77;;;11.90;84.80;;;;;;5070902;28;20040;-77
2023/01/05 11:46:11;;;;;;;6.63;1.67;;;11.90;85.00;;;;;;5105418;27;20058;-76
2023/01/05 11:48:37;;;;;;;10.75;3.17;;;11.80;85.20;;;;;;5075859;28;20130;-75
2023/01/05 11:51:02;;;;;;;7.30;1.45;;;11.80;85.30;;;;;;5058687;28;20092;-77
2023/01/05 11:53:38;;;;;;;6.53;1.45;;;11.90;85.50;;;;;;5091501;27;20076;-76
2023/01/05 11:56:16;;;;;;;7.05;1.77;;;11.80;85.50;;;;;;5089621;27;20036;-77
2023/01/05 11:58:45;;;;;;;8.30;1.40;;;11.90;85.50;;;;;;5087097;27;20067;-76
2023/01/05 12:01:43;;;;;;;4.70;1.52;;;11.90;85.60;;;;;;5093709;28;20410;-74
2023/01/05 12:04:11;;;;;;;10.55;1.77;;;11.80;85.70;;;;;;5108684;27;20793;-76
2023/01/05 12:06:54;;;;;;;5.25;1.30;;;11.80;85.60;;;;;;5079352;27;20035;-76
2023/01/05 12:09:32;;;;;;;7.00;1.60;;;11.80;85.60;;;;;;5077981;27;20047;-77
2023/01/05 12:12:18;;;;;;;6.68;1.50;;;11.80;85.60;;;;;;5076754;28;20148;-77
2023/01/05 12:14:52;;;;;;;7.63;2.03;;;11.70;85.50;;;;;;5091894;27;20039;-77
2023/01/05 12:17:36;;;;;;;7.38;1.40;;;11.80;85.60;;;;;;5106291;27;20036;-76
2023/01/05 12:20:42;;;;;;;4.05;1.55;;;11.80;85.70;;;;;;5077888;28;20753;-75
2023/01/05 12:23:20;;;;;;;9.45;1.55;;;11.90;85.90;;;;;;5075218;28;20036;-75
2023/01/05 12:25:57;;;;;;;6.18;1.98;;;12.00;85.80;;;;;;5077430;28;20123;-74
2023/01/05 12:28:40;;;;;;;9.43;1.80;;;12.20;85.80;;;;;;5089229;28;20096;-76
2023/01/05 12:31:35;;;;;;;9.02;1.50;;;12.30;85.20;;;;;;5053195;28;20614;-76
2023/01/05 12:34:38;;;;;;;9.18;1.67;;;12.40;85.00;;;;;;5069010;28;20036;-76
2023/01/05 12:37:15;;;;;;;14.27;1.67;;;12.40;84.40;;;;;;5084067;28;20047;-76
2023/01/05 12:39:55;;;;;;;9.88;1.52;;;12.40;84.50;;;;;;5107473;27;20036;-76
2023/01/05 12:42:58;;;;;;;10.75;2.75;;;12.50;84.50;;;;;;5089368;27;20132;-74
2023/01/05 12:45:45;;;;;;;10.35;2.13;;;12.60;84.20;;;;;;5093955;27;20386;-74
2023/01/05 12:48:24;;;;;;;10.43;2.00;;;12.70;84.30;;;;;;5110776;27;20043;-76
2023/01/05 12:51:02;;;;;;;11.07;1.90;;;12.80;83.60;;;;;;5055672;28;20128;-76
2023/01/05 12:53:34;;;;;;;5.70;1.27;;;12.80;83.80;;;;;;5069954;28;20127;-77
2023/01/05 12:56:13;;;;;;;10.50;1.83;;;13.00;83.60;;;;;;5071589;28;20032;-77
2023/01/05 12:59:00;;;;;;;9.10;1.73;;;13.00;83.30;;;;;;5072619;28;20046;-76
2023/01/05 13:01:27;;;;;;;9.63;2.17;;;13.10;83.00;;;;;;5053714;28;20048;-75
2023/01/05 13:03:56;;;;;;;10.75;1.38;;;13.00;82.70;;;;;;5073033;28;20464;-74
2023/01/05 13:06:22;;;;;;;9.70;1.80;;;13.10;82.70;;;;;;5053169;28;20040;-75
2023/01/05 13:09:17;;;;;;;12.68;2.00;;;13.10;82.60;;;;;;5068116;28;20032;-77
2023/01/05 13:11:48;;;;;;;8.00;1.75;;;13.10;82.00;;;;;;5070207;28;20140;-75
2023/01/05 13:14:41;;;;;;;15.63;2.25;;;13.00;82.00;;;;;;5044599;28;20039;-76
2023/01/05 13:17:16;;;;;;;12.15;2.25;;;12.90;81.60;;;;;;5070392;28;20042;-75
2023/01/05 13:19:46;;;;;;;10.07;1.83;;;12.90;82.00;;;;;;5090818;28;20134;-76
2023/01/05 13:22:22;;;;;;;12.52;2.00;;;12.90;82.00;;;;;;5068233;28;20667;-73
2023/01/05 13:25:08;;;;;;;12.85;1.65;;;12.80;81.90;;;;;;5042108;28;20036;-77
2023/01/05 13:27:33;;;;;;;6.15;1.20;;;12.70;81.90;;;;;;5053676;27;20039;-76
2023/01/05 13:29:59;;;;;;;7.75;1.88;;;12.70;82.20;;;;;;5076128;28;20028;-76
2023/01/05 13:32:55;;;;;;;10.48;1.90;;;12.70;82.20;;;;;;5067353;27;20559;-77
2023/01/05 13:35:54;;;;;;;14.70;2.10;;;12.70;81.70;;;;;;5107167;27;20116;-75
2023/01/05 13:38:48;;;;;;;13.18;2.17;;;12.60;81.60;;;;;;5082633;28;20043;-75
2023/01/05 13:41:52;;;;;;;11.77;2.50;;;12.60;81.60;;;;;;5105366;27;20034;-76